Baldwin, New York
Current Conditions -  °F | °C
As of 11:51 AM on Friday 24 Oct 2014 (Local Time) from KJFK Reporting Station
Broken Clouds Broken Clouds  
Wind Chill: 15°   Ceiling: 25000
Heat Index: 15°   Visibility: 10mi
Dew Point:   Wind: 20mph
Humidity: 53%   Direction: 330°NNW
Pressure: 29.81"   Gusts: NA
Location:  40.66°N, 73.61°W
Report Text: KJFK 241551Z 33017KT 10SM SCT037 SCT080 BKN250 15/06 A2981 RMK AO2 SLP096 T01500056
Loading
Personal Weather Stations






























Interactive Weather Map
Tropical Storm Tracking
New forecast layout! Learn more

10-Day Weather Forecast

Advertisements
Track Severe Weather on mobile